Página principal
METAR-TAF:

METAR-TAF

Aeroportos :

Aeroporto de Gibraltar

Gibraltar, Gibraltar

latitude: 36-09N, longitude: 005-21W, altura: 5 m

Observação actual do tempo

O boletim foi feito há 1 hora e 18 minutos, às 23:50 UTC
Vento 15 kt de nordeste
Temperatura 17°C
Humidade 94%
Pressão 1020 hPa
Visibilidade: 9000 m

METAR: LXGB 132350Z AUTO 05015KT 9000 // BKN007/// BKN024/// 17/16 Q1020

Hora: 02:08 (01:08 UTC)

Previsão

O boletim foi feito há 8 horas e 18 minutos, às 16:50 UTC
Previsão válida de 13 às 18 UTC a 13 às 23 UTC
Vento 13 kt de es-nordeste
Visibilidade: 8000 m
Poucas nuvensa uma altura de 1100 ft
Nuvens fragmentadasa uma altura de 2000 ft
bruma
Temporariamente
de 13 às 18 UTC a 13 às 23 UTC
Vento 15 kt de este com rajadas de 25 kt
Visibilidade: 6000 m
Nuvens dispersasa uma altura de 1100 ft
aguaceiros de chuva

TAF: LXGB 131650Z 1318/1323 07013KT 8000 HZ FEW011 BKN020 TEMPO 1318/1323 10015G25KT 6000 SHRA SCT011

Observações e previsões do tempo de mais de 4000 aeroportos (mensagens METAR e TAF).

As estações disponíveis são os pontos amarelos e vermelhos sobre o mapa.

Mova o rato sobre o mapa para ver o nome da estação.

Depois clique no ponto para visualizar as observações e previsões meteorológicas.

Para alterar o mapa : clique nos botões verdes com uma cruz preta para aumentar o zoom; no botão verde com uma pitada de zoom; ou nas setas verdes para mapas adjacentes.


METAR-TAF: